Terminal Aerodrome Forecast
Issued by NWS

Home | Current Version | Previous Version | Text Only | Print | Product List | Glossary On
Versions: 1 2 3 4 5 6 7 8 9 10 11
000
FTUS46 KSEW 271100
TAFBLI
TAF
KBLI 271130Z 2712/2812 00000KT 5SM -RA BR OVC021
      TEMPO 2716/2720 2SM -RA BR OVC015
     FM280000 19008KT P6SM -SHRA BKN022 OVC040=

USA.gov is the U.S. government's official web portal to all federal, state and local government web resources and services.